Time;durP1;ratioP1;P1;durP2;ratioP2;P2;SDS_P1;SDS_P2;PMS_P1;PMS_P2;Temp;Humidity;BMP_temperature;BMP_pressure;BME280_temperature;BME280_humidity;BME280_pressure;Samples;Min_cycle;Max_cycle;Signal;HPM_P1;HPM_P2
2021/11/12 00:12:29;;;;;;;89.20;53.50;;;;;;;4.67;77.56;100652.55;103900;1314;111186;-64
2021/11/12 00:15:16;;;;;;;86.30;53.20;;;;;;;4.69;77.59;100647.41;103355;1313;137946;-63
2021/11/12 00:18:04;;;;;;;91.00;53.80;;;;;;;4.72;77.70;100652.39;104526;1312;238034;-63
2021/11/12 00:20:52;;;;;;;91.40;53.10;;;;;;;4.72;77.68;100650.32;103276;1317;138714;-64
2021/11/12 00:23:39;;;;;;;81.80;50.80;;;;;;;4.68;77.53;100648.43;103521;1312;96494;-63
2021/11/12 00:26:26;;;;;;;91.90;51.60;;;;;;;4.65;77.69;100650.14;103380;1316;139790;-63
2021/11/12 00:29:14;;;;;;;89.80;51.60;;;;;;;4.66;77.74;100652.20;103413;1314;108934;-64
2021/11/12 00:32:14;;;;;;;83.00;50.20;;;;;;;4.67;77.88;100652.75;103436;1313;108401;-64
2021/11/12 00:35:15;;;;;;;94.40;54.40;;;;;;;4.68;78.03;100651.54;104779;1312;95048;-63
2021/11/12 00:38:06;;;;;;;94.00;52.80;;;;;;;4.65;78.00;100651.52;104241;1313;94957;-63
2021/11/12 00:41:11;;;;;;;105.90;56.80;;;;;;;4.64;78.30;100650.84;104239;1314;137516;-63
2021/11/12 00:44:11;;;;;;;100.40;56.60;;;;;;;4.60;78.31;100655.33;103463;1313;108485;-64
2021/11/12 00:49:57;;;;;;;107.30;54.50;;;;;;;4.61;78.58;100651.02;104729;1313;94823;-64
2021/11/12 00:55:45;;;;;;;98.20;53.70;;;;;;;4.65;78.66;100648.07;104704;1313;111024;-64
2021/11/12 00:58:31;;;;;;;94.30;52.00;;;;;;;4.72;78.94;100649.46;104675;1313;140142;-64
2021/11/12 01:01:19;;;;;;;102.60;54.30;;;;;;;4.77;79.00;100643.75;104263;1313;108795;-63
2021/11/12 01:04:09;;;;;;;101.20;54.50;;;;;;;4.79;78.86;100646.33;103178;1313;138221;-64
2021/11/12 01:06:56;;;;;;;108.40;57.00;;;;;;;4.83;78.70;100642.88;104236;1313;94470;-64
2021/11/12 01:09:43;;;;;;;103.00;56.40;;;;;;;4.85;78.92;100641.69;103788;1313;137954;-63
2021/11/12 01:12:30;;;;;;;104.90;56.30;;;;;;;4.80;78.66;100644.42;104750;1311;109637;-63
2021/11/12 01:15:18;;;;;;;;;;;;;;;4.77;78.73;100650.65;104641;1313;139349;-63
2021/11/12 01:18:05;;;;;;;104.90;54.90;;;;;;;4.76;78.72;100654.10;104365;1313;96658;-64
2021/11/12 01:20:52;;;;;;;105.10;55.40;;;;;;;4.77;78.97;100656.16;103362;1313;138748;-64
2021/11/12 01:23:42;;;;;;;;;;;;;;;4.80;78.96;100654.42;103474;1314;110860;-64
2021/11/12 01:26:30;;;;;;;107.30;55.00;;;;;;;4.84;79.19;100653.73;103466;1313;108659;-64
2021/11/12 01:29:17;;;;;;;102.30;53.40;;;;;;;4.87;79.12;100653.91;104526;1313;109052;-64
2021/11/12 01:32:21;;;;;;;111.20;56.20;;;;;;;4.83;78.99;100650.63;104237;1313;94852;-64
2021/11/12 01:35:10;;;;;;;107.90;55.60;;;;;;;4.80;79.05;100650.11;103666;1320;138008;-65
2021/11/12 01:37:58;;;;;;;96.50;52.30;;;;;;;4.81;79.34;100649.94;104639;1310;111288;-64
2021/11/12 01:40:46;;;;;;;;;;;;;;;4.78;79.15;100649.95;104431;1313;140608;-64
2021/11/12 01:43:45;;;;;;;96.50;52.60;;;;;;;4.80;79.43;100648.23;103409;1313;108237;-64
2021/11/12 01:49:33;;;;;;;101.20;51.50;;;;;;;4.89;79.66;100643.05;104701;1313;94380;-64
2021/11/12 01:52:24;;;;;;;97.70;51.70;;;;;;;4.93;79.55;100640.62;103311;1313;137998;-63
2021/11/12 02:00:49;;;;;;;101.00;53.40;;;;;;;4.99;79.61;100648.52;104332;1313;95217;-64
2021/11/12 02:03:36;;;;;;;101.10;54.10;;;;;;;4.91;79.47;100651.31;103320;1313;138718;-64
2021/11/12 02:06:24;;;;;;;98.10;52.00;;;;;;;4.90;79.61;100653.56;104564;1317;110230;-64
2021/11/12 02:09:16;;;;;;;96.10;51.90;;;;;;;4.91;79.97;100652.70;104598;1313;139925;-63
2021/11/12 02:12:32;;;;;;;97.60;52.40;;;;;;;4.89;79.76;100655.28;104705;1314;108847;-62
2021/11/12 02:15:13;;;;;;;98.40;52.80;;;;;;;4.91;80.13;100657.52;104459;1317;138385;-63
2021/11/12 02:18:05;;;;;;;108.70;54.10;;;;;;;4.87;80.07;100666.67;104755;1313;94687;-62
2021/11/12 02:21:47;;;;;;;101.90;53.50;;;;;;;4.92;80.19;100670.95;104641;1316;112618;-63
2021/11/12 02:24:05;;;;;;;104.90;55.30;;;;;;;4.92;80.37;100666.64;104623;1315;108889;-63
2021/11/12 02:26:56;;;;;;;102.60;52.50;;;;;;;4.93;80.37;100667.15;104742;1313;108942;-63
2021/11/12 02:29:55;;;;;;;99.90;52.80;;;;;;;4.91;80.37;100665.27;104629;1313;138829;-63
2021/11/12 02:32:42;;;;;;;93.40;51.90;;;;;;;4.95;80.49;100667.48;103478;1313;96523;-63
2021/11/12 02:35:30;;;;;;;;;;;;;;;4.97;80.31;100670.41;103305;1314;138712;-63
2021/11/12 02:38:17;;;;;;;91.60;51.00;;;;;;;5.01;80.51;100673.16;103330;1312;109468;-63
2021/11/12 02:41:05;;;;;;;91.10;50.50;;;;;;;5.04;80.49;100674.55;103252;1312;138399;-63
2021/11/12 02:43:53;;;;;;;87.20;50.30;;;;;;;5.05;80.32;100672.13;104763;1313;94540;-64
2021/11/12 02:46:40;;;;;;;96.90;52.00;;;;;;;5.10;80.65;100669.00;103724;1322;139397;-63
2021/11/12 02:49:27;;;;;;;95.10;52.60;;;;;;;5.12;80.43;100670.20;104742;1313;111339;-63
2021/11/12 02:52:18;;;;;;;92.20;53.00;;;;;;;5.10;80.44;100667.96;104643;1313;137941;-64
2021/11/12 02:55:05;;;;;;;92.60;51.10;;;;;;;5.07;80.01;100675.21;104359;1313;109008;-64
2021/11/12 02:57:52;;;;;;;;;;;;;;;5.04;80.28;100670.40;104631;1313;138834;-63
2021/11/12 03:00:40;;;;;;;91.20;49.60;;;;;;;5.02;80.56;100675.39;103704;1313;96847;-63
2021/11/12 03:03:28;;;;;;;86.50;49.00;;;;;;;5.05;80.31;100672.48;104249;1312;159885;-64
2021/11/12 03:06:15;;;;;;;81.10;49.00;;;;;;;5.07;80.65;100667.80;104760;1314;107938;-64
2021/11/12 03:09:06;;;;;;;97.80;51.50;;;;;;;5.09;80.56;100668.48;103517;1312;108766;-63
2021/11/12 03:11:53;;;;;;;97.20;52.40;;;;;;;5.09;80.58;100671.08;103270;1313;137835;-63
2021/11/12 03:14:40;;;;;;;99.60;52.30;;;;;;;5.08;80.69;100668.15;104744;1312;94670;-64
2021/11/12 03:17:27;;;;;;;91.30;52.00;;;;;;;5.10;80.57;100674.17;104470;1313;138240;-64
2021/11/12 03:20:15;;;;;;;91.70;49.40;;;;;;;5.13;81.02;100672.77;104245;1316;107224;-64
2021/11/12 03:23:06;;;;;;;89.30;49.60;;;;;;;5.13;80.55;100680.70;104636;1313;138921;-64
2021/11/12 04:00:08;;;;;;;91.20;49.80;;;;;;;5.18;81.21;100691.20;102782;1321;137804;-63
2021/11/12 05:51:04;;;;;;;102.90;47.50;;;;;;;5.63;82.64;100722.77;103241;1314;138404;-63
2021/11/12 05:56:59;;;;;;;107.60;48.70;;;;;;;5.67;82.74;100734.48;103397;1314;138283;-64
2021/11/12 05:59:45;;;;;;;108.70;49.70;;;;;;;5.64;82.42;100732.95;103777;1313;96504;-64
2021/11/12 06:02:33;;;;;;;108.60;50.10;;;;;;;5.59;82.37;100735.55;103219;1313;138994;-64
2021/11/12 06:05:21;;;;;;;101.30;48.60;;;;;;;5.61;82.65;100746.60;103341;1313;111190;-64
2021/11/12 06:08:08;;;;;;;104.60;48.30;;;;;;;5.62;83.00;100754.02;103345;1313;139029;-64
2021/11/12 06:10:55;;;;;;;97.40;48.10;;;;;;;5.68;82.98;100756.55;103457;1313;108360;-63
2021/11/12 06:13:42;;;;;;;113.40;48.50;;;;;;;5.70;82.71;100761.04;103371;1313;138129;-64
2021/11/12 06:16:29;;;;;;;103.50;49.30;;;;;;;5.71;83.01;100763.80;103362;1314;96538;-64
2021/11/12 06:19:16;;;;;;;127.90;50.00;;;;;;;5.69;82.60;100765.88;103266;1313;138605;-64
2021/11/12 06:22:03;;;;;;;100.50;49.30;;;;;;;5.70;82.88;100766.55;103413;1314;109262;-65
2021/11/12 06:24:50;;;;;;;109.40;47.90;;;;;;;5.72;82.90;100769.65;103624;1313;138938;-64
2021/11/12 06:27:37;;;;;;;107.30;49.60;;;;;;;5.73;83.00;100770.51;103492;1313;96466;-64
2021/11/12 06:30:24;;;;;;;103.60;48.30;;;;;;;5.75;82.83;100768.29;103459;1316;96628;-64
2021/11/12 06:33:11;;;;;;;102.60;48.50;;;;;;;5.78;83.22;100769.81;103282;1316;138426;-63
2021/11/12 06:35:59;;;;;;;97.10;47.40;;;;;;;5.83;83.03;100762.54;103381;1317;109311;-64
2021/11/12 06:38:46;;;;;;;105.30;47.70;;;;;;;5.86;83.18;100761.84;103694;1315;138123;-63
2021/11/12 06:50:34;;;;;;;107.70;48.30;;;;;;;5.87;82.87;100779.27;103302;1313;138879;-63
2021/11/12 06:53:21;;;;;;;106.90;48.20;;;;;;;5.91;83.03;100774.60;104725;1313;108890;-64
2021/11/12 06:56:08;;;;;;;96.90;46.80;;;;;;;5.97;82.98;100778.23;104617;1312;138651;-64
2021/11/12 06:58:54;;;;;;;98.60;48.00;;;;;;;6.00;82.80;100780.10;104748;1313;94743;-64
2021/11/12 07:01:42;;;;;;;107.60;49.90;;;;;;;6.06;82.78;100783.51;103244;1316;138372;-63
2021/11/12 07:04:28;;;;;;;;;;;;;;;6.12;82.78;100783.32;103116;1312;107887;-64
2021/11/12 07:07:16;;;;;;;110.90;48.60;;;;;;;6.09;82.70;100782.45;103275;1313;124437;-63
2021/11/12 07:10:05;;;;;;;106.20;49.50;;;;;;;6.09;82.67;100782.80;103442;1313;96497;-62
2021/11/12 07:12:52;;;;;;;105.60;49.60;;;;;;;6.06;82.56;100784.71;103379;1312;138330;-64
2021/11/12 07:15:40;;;;;;;109.50;49.10;;;;;;;6.06;82.71;100785.23;103485;1312;111754;-64
2021/11/12 07:18:28;;;;;;;105.30;49.50;;;;;;;6.12;82.90;100784.36;103393;1313;109956;-63
2021/11/12 07:21:15;;;;;;;102.10;48.00;;;;;;;6.18;82.66;100789.69;103284;1313;138741;-63
2021/11/12 07:24:21;;;;;;;102.30;48.70;;;;;;;6.21;82.85;100786.89;104501;1317;94476;-63
2021/11/12 07:27:08;;;;;;;105.20;49.30;;;;;;;6.23;82.74;100783.59;103563;1317;138650;-63
2021/11/12 07:29:55;;;;;;;121.40;50.80;;;;;;;6.28;82.61;100785.13;103732;1312;111121;-63
2021/11/12 07:32:44;;;;;;;122.50;51.40;;;;;;;6.32;82.55;100785.79;103264;1314;138860;-64
2021/11/12 07:35:36;;;;;;;112.60;54.10;;;;;;;6.31;82.38;100785.80;103412;1314;107983;-62
2021/11/12 07:38:30;;;;;;;110.60;50.30;;;;;;;6.30;82.19;100788.40;103373;1312;138144;-62
2021/11/12 07:47:16;;;;;;;104.50;47.70;;;;;;;6.40;82.60;100793.67;103776;1317;109025;-64
2021/11/12 07:50:07;;;;;;;106.10;48.90;;;;;;;6.45;82.53;100797.27;103280;1313;138993;-63
2021/11/12 07:52:54;;;;;;;106.20;49.20;;;;;;;6.53;82.33;100796.71;104748;1317;94846;-63
2021/11/12 07:55:41;;;;;;;116.80;51.80;;;;;;;6.55;82.38;100791.51;104299;1313;137838;-63
2021/11/12 07:58:28;;;;;;;114.60;50.70;;;;;;;6.58;82.25;100792.17;103445;1312;111225;-63
2021/11/12 08:01:19;;;;;;;106.80;48.10;;;;;;;6.60;82.22;100791.98;102862;1313;138327;-63
2021/11/12 08:04:07;;;;;;;;;;;;;;;6.59;82.08;100793.55;104476;1314;109180;-63
2021/11/12 08:06:56;;;;;;;105.50;48.70;;;;;;;6.61;82.11;100794.04;103364;1313;125252;-64
2021/11/12 08:09:53;;;;;;;90.30;45.00;;;;;;;6.66;82.07;100790.92;103447;1313;97882;-63
2021/11/12 08:12:45;;;;;;;107.90;48.60;;;;;;;6.73;82.03;100791.73;103416;1312;112567;-63
2021/11/12 08:15:45;;;;;;;105.80;47.80;;;;;;;6.75;82.08;100796.19;103262;1313;138272;-63
2021/11/12 08:18:43;;;;;;;112.00;48.00;;;;;;;6.80;81.74;100792.52;104523;1312;108251;-64
2021/11/12 08:21:50;;;;;;;103.20;48.40;;;;;;;6.78;81.74;100793.39;104623;1311;138605;-63
2021/11/12 08:36:39;;;;;;;93.70;44.00;;;;;;;7.04;81.86;100790.09;104721;1314;96232;-64
2021/11/12 08:39:54;;;;;;;102.90;47.10;;;;;;;7.13;81.59;100796.55;104660;1313;139118;-64
2021/11/12 08:42:47;;;;;;;98.60;47.10;;;;;;;7.22;81.50;100793.71;104739;1313;112060;-64
2021/11/12 08:45:39;;;;;;;103.10;47.90;;;;;;;7.32;81.19;100793.26;104660;1313;137902;-64
2021/11/12 08:49:18;;;;;;;97.80;45.70;;;;;;;7.33;81.09;100796.88;104732;1312;108958;-64
2021/11/12 08:51:35;;;;;;;96.20;45.20;;;;;;;7.36;80.95;100797.21;103340;1313;138982;-64
2021/11/12 08:54:25;;;;;;;89.10;43.80;;;;;;;7.45;80.80;100790.55;103439;1314;97953;-64
2021/11/12 08:57:15;;;;;;;88.70;43.20;;;;;;;7.49;80.84;100799.48;103692;1313;138520;-64
2021/11/12 09:00:06;;;;;;;91.80;44.50;;;;;;;7.58;80.85;100801.66;103443;1313;109011;-64
2021/11/12 09:02:53;;;;;;;91.60;43.80;;;;;;;7.65;80.70;100807.27;104673;1316;138186;-64
2021/11/12 09:05:40;;;;;;;91.60;46.50;;;;;;;7.72;80.51;100799.23;104174;1313;98319;-64
2021/11/12 09:08:27;;;;;;;92.50;46.90;;;;;;;7.75;80.24;100795.58;102921;1315;138086;-65
2021/11/12 09:11:14;;;;;;;;;;;;;;;7.74;80.00;100802.51;103137;1316;112631;-64
2021/11/12 09:14:03;;;;;;;99.50;47.30;;;;;;;7.76;80.36;100806.30;103083;1314;124476;-64
2021/11/12 09:16:50;;;;;;;85.30;42.80;;;;;;;7.82;80.18;100799.81;103287;1316;109117;-64
2021/11/12 09:20:21;;;;;;;88.40;40.70;;;;;;;7.87;80.17;100801.63;103313;1313;139122;-64
2021/11/12 09:22:49;;;;;;;87.20;42.20;;;;;;;7.94;79.96;100794.14;103295;1313;97868;-63
2021/11/12 09:25:36;;;;;;;78.30;40.70;;;;;;;8.01;80.18;100795.92;104565;1313;138841;-63
2021/11/12 09:28:23;;;;;;;88.10;42.70;;;;;;;8.12;79.83;100799.27;103631;1317;109456;-64
2021/11/12 09:31:10;;;;;;;84.10;43.80;;;;;;;8.22;79.85;100800.15;103374;1313;110042;-64
2021/11/12 09:33:58;;;;;;;84.60;43.40;;;;;;;8.26;79.47;100797.86;103383;1312;97817;-64
2021/11/12 09:36:45;;;;;;;;;;;;;;;8.26;79.23;100795.09;104755;1316;96098;-63
2021/11/12 09:39:33;;;;;;;84.30;43.80;;;;;;;8.24;79.21;100796.83;104270;1314;123898;-64
2021/11/12 09:42:24;;;;;;;77.70;40.20;;;;;;;8.24;79.17;100794.92;104679;1313;108519;-64
2021/11/12 09:45:12;;;;;;;76.50;39.50;;;;;;;8.26;79.23;100789.71;104282;1312;139240;-63
2021/11/12 09:47:59;;;;;;;74.10;39.20;;;;;;;8.29;79.02;100787.95;103579;1313;97850;-63
2021/11/12 09:50:46;;;;;;;74.30;37.60;;;;;;;8.30;78.72;100790.35;103100;1313;138717;-63
2021/11/12 09:53:34;;;;;;;79.00;40.90;;;;;;;8.30;78.77;100790.54;103317;1317;112531;-63
2021/11/12 09:56:20;;;;;;;76.10;42.20;;;;;;;8.33;78.77;100792.05;104646;1313;138398;-63
2021/11/12 09:59:11;;;;;;;83.90;43.10;;;;;;;8.35;78.68;100788.56;104402;1313;109012;-64
2021/11/12 10:01:58;;;;;;;86.00;44.60;;;;;;;8.43;78.87;100783.08;102679;1311;138249;-65
2021/11/12 10:04:46;;;;;;;79.30;43.10;;;;;;;8.45;78.61;100787.23;103390;1311;97727;-63
2021/11/12 10:07:40;;;;;;;77.90;39.90;;;;;;;8.44;78.41;100788.44;103222;1313;138125;-64
2021/11/12 10:10:27;;;;;;;72.30;38.40;;;;;;;8.49;78.52;100788.20;104729;1310;109296;-63
2021/11/12 10:13:30;;;;;;;75.10;38.90;;;;;;;8.55;78.67;100785.34;104096;1312;109050;-63
2021/11/12 10:19:13;;;;;;;72.20;40.10;;;;;;;8.55;77.95;100785.69;103351;1313;97730;-64
2021/11/12 10:22:02;;;;;;;78.50;40.90;;;;;;;8.41;77.92;100783.98;103411;1315;137832;-64
2021/11/12 10:25:05;;;;;;;75.90;41.00;;;;;;;8.30;77.87;100787.77;104080;1316;109060;-64
2021/11/12 10:27:53;;;;;;;77.90;39.10;;;;;;;8.24;78.21;100788.33;103063;1315;138259;-64
2021/11/12 10:30:40;;;;;;;80.10;40.40;;;;;;;8.23;78.34;100788.70;103785;1313;97872;-64
2021/11/12 10:33:37;;;;;;;79.10;40.70;;;;;;;8.21;78.36;100788.56;103162;1316;138618;-64
2021/11/12 10:36:25;;;;;;;79.90;41.30;;;;;;;8.20;78.47;100789.43;103486;1316;112480;-64
2021/11/12 10:39:12;;;;;;;82.80;41.50;;;;;;;8.24;78.54;100785.05;103222;1317;138513;-64
2021/11/12 10:42:04;;;;;;;87.50;44.10;;;;;;;8.28;78.82;100778.77;103216;1315;108892;-63
2021/11/12 10:44:53;;;;;;;89.20;45.40;;;;;;;8.30;78.73;100775.63;103192;1316;138167;-62
2021/11/12 10:48:03;;;;;;;90.00;46.70;;;;;;;8.29;78.53;100772.52;103263;1316;98331;-63
2021/11/12 10:50:51;;;;;;;;;;;;;;;8.25;78.57;100774.30;103350;1316;112566;-63
2021/11/12 10:53:52;;;;;;;87.50;44.20;;;;;;;8.22;78.43;100774.52;103777;1316;124202;-63
2021/11/12 10:56:49;;;;;;;84.20;42.90;;;;;;;8.22;78.67;100775.02;103218;1314;108472;-65
2021/11/12 11:00:08;;;;;;;86.40;43.10;;;;;;;8.21;78.50;100768.13;103050;1312;138759;-63
2021/11/12 11:03:05;;;;;;;77.90;41.50;;;;;;;8.20;78.72;100764.51;103354;1317;97911;-64
2021/11/12 11:06:03;;;;;;;;;;;;;;;8.23;78.76;100762.19;103238;1316;139193;-63
2021/11/12 11:08:51;;;;;;;82.60;41.30;;;;;;;8.26;78.74;100762.34;103297;1313;108957;-63
2021/11/12 11:11:43;;;;;;;79.50;41.20;;;;;;;8.25;78.44;100763.73;103252;1316;139187;-63
2021/11/12 11:14:32;;;;;;;85.50;43.30;;;;;;;8.29;78.67;100760.40;103211;1316;98001;-63
2021/11/12 11:17:27;;;;;;;80.40;41.40;;;;;;;8.32;78.62;100756.36;103254;1316;137917;-63
2021/11/12 11:20:19;;;;;;;87.90;43.40;;;;;;;8.32;78.32;100748.20;103391;1319;112769;-63
2021/11/12 11:23:07;;;;;;;86.20;43.70;;;;;;;8.33;78.51;100748.22;103740;1317;137147;-64
2021/11/12 11:26:05;;;;;;;87.10;43.60;;;;;;;8.34;78.24;100747.00;103460;1313;109122;-63
2021/11/12 11:28:57;;;;;;;88.10;45.20;;;;;;;8.37;78.52;100751.28;104469;1312;139500;-63
2021/11/12 11:31:44;;;;;;;81.70;43.20;;;;;;;8.46;78.54;100745.95;103507;1315;97921;-64
2021/11/12 11:34:34;;;;;;;83.90;44.30;;;;;;;8.54;78.23;100747.05;103289;1316;138577;-65
2021/11/12 11:37:21;;;;;;;98.10;49.40;;;;;;;8.60;78.32;100744.35;103313;1313;108682;-65
2021/11/12 11:40:11;;;;;;;95.80;49.40;;;;;;;8.63;78.02;100742.23;104503;1312;138432;-63
2021/11/12 11:42:58;;;;;;;92.40;47.10;;;;;;;8.63;77.96;100738.41;103655;1316;97921;-63
2021/11/12 11:45:48;;;;;;;96.90;48.40;;;;;;;8.61;77.81;100742.60;103231;1316;97747;-63
2021/11/12 11:48:41;;;;;;;93.00;46.00;;;;;;;8.58;77.92;100746.62;103800;1316;138108;-62
2021/11/12 11:51:39;;;;;;;80.60;41.10;;;;;;;8.57;77.79;100741.09;104549;1315;110289;-63
2021/11/12 11:54:31;;;;;;;76.90;41.00;;;;;;;8.61;78.02;100734.27;104370;1316;140158;-63
2021/11/12 11:57:20;;;;;;;69.70;39.10;;;;;;;8.64;77.66;100729.55;104583;1310;95975;-63
2021/11/12 12:00:21;;;;;;;72.30;39.30;;;;;;;8.74;77.82;100727.30;103288;1317;138382;-65
2021/11/12 12:03:21;;;;;;;81.50;43.10;;;;;;;8.80;77.51;100730.84;104003;1312;111373;-63
2021/11/12 12:06:10;;;;;;;79.40;41.60;;;;;;;8.85;77.58;100728.85;104510;1313;138577;-63
2021/11/12 12:09:06;;;;;;;83.80;43.90;;;;;;;8.90;77.59;100727.02;104340;1317;108874;-62
2021/11/12 12:11:56;;;;;;;77.40;40.60;;;;;;;8.95;77.51;100724.67;103171;1316;138421;-62
2021/11/12 12:14:45;;;;;;;78.30;41.20;;;;;;;8.96;77.42;100719.79;103430;1316;97712;-64
2021/11/12 12:17:35;;;;;;;86.10;43.50;;;;;;;8.96;77.21;100721.35;103233;1316;138619;-64
2021/11/12 12:33:20;;;;;;;111.60;59.80;;;;;;;9.01;76.91;100703.59;103319;1313;112558;-63
2021/11/12 12:43:34;;;;;;;71.90;39.10;;;;;;;8.97;76.91;100701.39;103297;1314;139069;-64
2021/11/12 13:24:37;;;;;;;76.90;42.00;;;;;;;8.71;77.25;100692.67;102995;1311;109027;-64
2021/11/12 13:27:27;;;;;;;77.90;42.10;;;;;;;8.67;77.36;100696.23;102545;1317;140074;-64
2021/11/12 13:30:28;;;;;;;78.90;43.30;;;;;;;8.64;77.22;100694.90;102579;1316;97944;-64
2021/11/12 13:33:37;;;;;;;75.20;40.50;;;;;;;8.54;77.38;100700.60;102161;1315;138768;-64
2021/11/12 13:36:30;;;;;;;76.50;40.00;;;;;;;8.58;77.57;100699.49;102401;1315;112599;-64
2021/11/12 13:39:18;;;;;;;71.40;39.90;;;;;;;8.48;77.41;100697.06;103529;1313;137835;-64
2021/11/12 13:42:07;;;;;;;69.20;38.30;;;;;;;8.48;77.86;100702.09;102569;1312;108956;-64
2021/11/12 13:44:57;;;;;;;72.20;39.70;;;;;;;8.51;77.81;100706.55;101956;1314;139502;-63
2021/11/12 13:47:46;;;;;;;64.60;36.30;;;;;;;8.58;77.93;100709.36;102267;1312;97872;-65
2021/11/12 13:50:33;;;;;;;73.60;37.90;;;;;;;8.55;77.71;100706.65;103449;1313;139255;-64
2021/11/12 13:53:25;;;;;;;67.20;36.30;;;;;;;8.52;77.68;100706.54;102373;1316;108866;-64
2021/11/12 13:56:11;;;;;;;67.70;37.40;;;;;;;8.52;77.75;100710.67;102615;1317;140155;-64
2021/11/12 13:59:16;;;;;;;65.70;37.80;;;;;;;8.53;77.87;100713.27;102662;1316;95903;-64
2021/11/12 14:02:07;;;;;;;67.40;37.90;;;;;;;8.58;78.01;100715.60;102095;1315;138541;-63
2021/11/12 14:05:11;;;;;;;63.50;35.70;;;;;;;8.54;77.69;100711.68;102216;1315;112675;-65
2021/11/12 14:08:03;;;;;;;63.10;35.10;;;;;;;8.44;77.70;100718.61;102110;1309;138332;-63
2021/11/12 14:10:52;;;;;;;61.80;35.00;;;;;;;8.40;77.83;100719.52;103627;1314;108808;-64
2021/11/12 14:13:40;;;;;;;67.00;36.20;;;;;;;8.43;78.03;100714.29;103867;1315;95979;-64
2021/11/12 14:16:31;;;;;;;59.20;34.50;;;;;;;8.50;78.08;100712.80;104353;1314;138958;-64
2021/11/12 14:22:37;;;;;;;62.80;35.80;;;;;;;8.52;77.85;100718.31;103459;1323;139196;-65
2021/11/12 14:25:35;;;;;;;66.00;37.60;;;;;;;8.55;77.99;100720.86;104615;1314;108874;-65
2021/11/12 14:28:36;;;;;;;;;;;;;;;8.52;77.92;100718.14;103395;1319;138945;-65
2021/11/12 14:34:42;;;;;;;70.40;38.20;;;;;;;8.36;78.01;100727.05;104470;1316;137973;-63
2021/11/12 14:46:59;;;;;;;69.30;37.40;;;;;;;8.44;78.08;100725.02;104435;1318;138251;-64
2021/11/12 14:49:55;;;;;;;70.10;38.60;;;;;;;8.47;78.14;100725.84;104359;1316;112556;-64
2021/11/12 14:53:18;;;;;;;67.80;37.30;;;;;;;8.50;78.21;100723.55;103176;1315;138369;-63
2021/11/12 14:56:11;;;;;;;60.70;34.40;;;;;;;8.46;78.00;100724.81;104596;1315;109373;-65
2021/11/12 14:59:01;;;;;;;64.40;35.60;;;;;;;8.50;78.16;100724.92;104377;1316;137890;-65
2021/11/12 15:01:48;;;;;;;58.50;34.00;;;;;;;8.44;78.00;100725.70;103668;1317;97911;-64
2021/11/12 15:04:36;;;;;;;56.40;31.50;;;;;;;8.42;78.11;100722.27;103085;1316;139385;-64
2021/11/12 15:07:28;;;;;;;57.90;30.90;;;;;;;8.45;78.00;100726.04;103384;1319;109055;-65
2021/11/12 15:10:23;;;;;;;58.30;33.00;;;;;;;8.43;77.95;100728.31;103355;1319;138803;-65
2021/11/12 15:13:16;;;;;;;57.10;32.10;;;;;;;8.42;77.78;100735.44;103239;1313;140457;-65
2021/11/12 15:16:10;;;;;;;60.60;33.20;;;;;;;8.36;77.90;100740.73;104461;1313;96014;-66
2021/11/12 15:18:59;;;;;;;62.10;33.50;;;;;;;8.33;78.01;100735.73;104473;1313;137976;-64
2021/11/12 15:24:50;;;;;;;62.10;31.90;;;;;;;8.30;78.21;100739.77;103117;1312;138139;-63
2021/11/12 15:27:48;;;;;;;56.90;32.00;;;;;;;8.25;78.08;100743.13;103986;1313;96006;-63
2021/11/12 15:30:44;;;;;;;56.00;31.20;;;;;;;8.23;78.39;100742.63;103877;1316;140601;-63
2021/11/12 15:33:31;;;;;;;59.30;33.30;;;;;;;8.25;78.25;100746.91;103926;1320;112553;-64
2021/11/12 15:36:19;;;;;;;62.60;34.10;;;;;;;8.30;78.44;100749.64;103297;1314;138157;-65
2021/11/12 15:39:18;;;;;;;;;;;;;;;8.35;78.35;100744.04;103467;1313;108881;-63
2021/11/12 15:45:19;;;;;;;61.60;35.70;;;;;;;8.28;78.36;100750.36;103327;1313;97816;-64
2021/11/12 15:48:11;;;;;;;62.00;33.40;;;;;;;8.23;78.30;100751.98;103200;1313;137950;-65
2021/11/12 15:53:56;;;;;;;64.60;35.80;;;;;;;8.23;78.57;100753.00;103198;1323;139277;-64
2021/11/12 15:57:03;;;;;;;61.80;34.50;;;;;;;8.29;78.64;100758.84;104656;1313;97312;-64
2021/11/12 16:03:51;;;;;;;66.20;36.20;;;;;;;8.42;78.57;100759.70;104545;1312;112471;-63
2021/11/12 16:17:57;;;;;;;72.40;36.40;;;;;;;8.55;78.36;100756.90;103028;1317;242263;-66
2021/11/12 16:23:51;;;;;;;77.70;40.50;;;;;;;8.57;78.23;100763.98;103178;1317;138305;-62
2021/11/12 16:26:42;;;;;;;79.20;40.60;;;;;;;8.60;78.16;100767.91;103326;1313;98981;-65
2021/11/12 16:32:28;;;;;;;77.00;40.70;;;;;;;8.60;78.12;100774.67;103173;1313;112277;-65
2021/11/12 16:35:20;;;;;;;67.90;37.70;;;;;;;8.55;77.89;100770.77;103153;1313;138394;-65
2021/11/12 16:38:15;;;;;;;71.50;37.60;;;;;;;8.48;78.04;100770.70;103248;1314;109267;-63
2021/11/12 16:44:16;;;;;;;72.90;38.60;;;;;;;8.48;78.23;100771.57;103184;1314;97864;-65
2021/11/12 17:02:02;;;;;;;68.20;36.90;;;;;;;8.51;78.51;100772.75;103066;1313;139368;-65
2021/11/12 17:11:20;;;;;;;74.50;40.60;;;;;;;8.53;78.24;100773.58;103897;1314;97768;-63
2021/11/12 17:20:22;;;;;;;72.20;38.70;;;;;;;8.48;78.37;100772.10;102957;1312;139255;-63
2021/11/12 17:45:18;;;;;;;77.10;41.80;;;;;;;8.61;78.24;100768.77;103180;1313;138741;-64
2021/11/12 17:48:08;;;;;;;73.20;41.90;;;;;;;8.67;78.29;100764.86;103381;1313;112695;-63
2021/11/12 17:51:09;;;;;;;73.40;41.20;;;;;;;8.72;78.26;100762.88;103467;1311;137809;-63
2021/11/12 18:03:23;;;;;;;71.30;39.10;;;;;;;8.76;78.11;100743.91;104478;1313;137845;-66
2021/11/12 18:06:25;;;;;;;73.50;39.10;;;;;;;8.73;78.01;100739.80;103501;1317;109114;-66
2021/11/12 18:15:34;;;;;;;91.20;47.50;;;;;;;8.59;77.83;100744.52;102717;1313;138011;-66
2021/11/12 21:48:22;;;;;;;60.00;28.70;;;;;;;5.65;85.16;100682.05;103091;1320;112172;-64
2021/11/12 21:51:13;;;;;;;48.90;25.50;;;;;;;5.59;85.14;100685.89;103032;1316;138898;-63
2021/11/12 21:54:03;;;;;;;53.40;27.10;;;;;;;5.54;85.01;100672.44;103145;1316;108869;-63
2021/11/12 21:56:50;;;;;;;58.70;28.50;;;;;;;5.53;85.17;100675.37;103020;1316;139000;-64
2021/11/12 21:59:36;;;;;;;64.80;31.30;;;;;;;5.51;85.39;100672.98;103240;1317;97862;-64
2021/11/12 22:02:25;;;;;;;58.40;27.00;;;;;;;5.49;85.36;100668.51;102958;1317;137927;-63
2021/11/12 22:05:11;;;;;;;52.00;26.70;;;;;;;5.47;85.37;100664.55;103067;1320;108580;-63
2021/11/12 22:07:58;;;;;;;51.60;26.20;;;;;;;5.45;85.84;100671.11;103021;1316;138976;-64
2021/11/12 22:10:45;;;;;;;56.00;26.20;;;;;;;5.43;85.71;100670.09;103129;1316;97834;-63
2021/11/12 22:13:34;;;;;;;59.10;28.60;;;;;;;5.41;85.64;100664.92;103068;1317;138875;-64
2021/11/12 22:16:23;;;;;;;63.60;28.90;;;;;;;5.43;86.25;100657.67;104259;1318;112432;-64
2021/11/12 22:19:09;;;;;;;65.70;30.00;;;;;;;5.46;85.92;100655.58;104145;1317;138879;-64
2021/11/12 22:21:56;;;;;;;74.80;31.10;;;;;;;5.48;86.41;100654.71;103153;1316;109123;-63
2021/11/12 22:24:43;;;;;;;73.00;31.80;;;;;;;5.49;86.15;100656.09;102991;1317;97933;-63
2021/11/12 22:27:30;;;;;;;68.20;31.80;;;;;;;5.48;86.56;100663.85;102987;1316;138582;-64
2021/11/12 22:30:17;;;;;;;67.50;32.00;;;;;;;5.46;86.56;100666.61;104018;1315;113102;-64
2021/11/12 22:33:06;;;;;;;70.90;32.10;;;;;;;5.44;86.51;100666.46;102986;1320;138798;-63
2021/11/12 22:35:53;;;;;;;68.30;32.10;;;;;;;5.44;86.84;100664.73;103649;1315;109835;-64